Time;durP1;ratioP1;P1;durP2;ratioP2;P2;SDS_P1;SDS_P2;PMS_P1;PMS_P2;Temp;Humidity;BMP_temperature;BMP_pressure;BME280_temperature;BME280_humidity;BME280_pressure;Samples;Min_cycle;Max_cycle;Signal;HPM_P1;HPM_P2
2023/05/04 00:01:39;;;;;;;7.67;7.47;;;21.10;55.00;;;;;;5094130;28;20454;-54
2023/05/04 00:04:06;;;;;;;7.63;7.43;;;21.10;55.00;;;;;;5094203;28;20823;-56
2023/05/04 00:06:33;;;;;;;8.00;7.70;;;21.00;54.90;;;;;;5094544;28;20481;-56
2023/05/04 00:09:02;;;;;;;10.20;9.50;;;21.00;54.90;;;;;;5094330;28;20537;-57
2023/05/04 00:11:29;;;;;;;8.00;7.80;;;21.00;54.90;;;;;;5075093;28;20974;-56
2023/05/04 00:13:56;;;;;;;7.30;7.20;;;21.00;55.00;;;;;;5073080;28;20539;-56
2023/05/04 00:16:23;;;;;;;7.80;7.60;;;21.00;55.00;;;;;;5073317;28;20522;-53
2023/05/04 00:18:50;;;;;;;7.50;7.30;;;21.00;54.90;;;;;;5073087;28;20522;-54
2023/05/04 00:21:16;;;;;;;8.17;7.73;;;21.00;55.00;;;;;;5077034;28;20538;-57
2023/05/04 00:23:43;;;;;;;7.80;7.60;;;21.00;54.90;;;;;;5072958;28;21017;-52
2023/05/04 00:26:11;;;;;;;6.93;6.73;;;21.00;55.00;;;;;;5072862;28;20570;-58
2023/05/04 00:28:38;;;;;;;7.87;7.60;;;21.00;55.00;;;;;;5072704;28;20525;-55
2023/05/04 00:31:05;;;;;;;7.97;7.50;;;21.00;55.00;;;;;;5091160;28;20880;-55
2023/05/04 00:33:32;;;;;;;7.50;7.30;;;21.00;55.00;;;;;;5092916;28;20561;-54
2023/05/04 00:35:59;;;;;;;7.23;7.03;;;21.00;55.00;;;;;;5093011;28;20530;-55
2023/05/04 00:38:26;;;;;;;7.70;7.50;;;20.90;55.00;;;;;;5077575;28;20482;-55
2023/05/04 00:40:53;;;;;;;7.90;7.63;;;21.00;55.10;;;;;;5072646;28;20538;-55
2023/05/04 00:43:21;;;;;;;7.73;7.53;;;20.90;54.90;;;;;;5072652;28;20542;-55
2023/05/04 00:45:48;;;;;;;7.90;7.70;;;21.00;55.00;;;;;;5072475;28;20915;-56
2023/05/04 00:48:15;;;;;;;7.60;7.40;;;20.90;54.90;;;;;;5071868;28;20547;-56
2023/05/04 00:50:42;;;;;;;8.13;7.87;;;20.90;55.00;;;;;;5072498;28;20475;-54
2023/05/04 00:53:10;;;;;;;7.60;7.40;;;20.90;54.90;;;;;;5072457;28;21038;-55
2023/05/04 00:55:39;;;;;;;7.70;7.50;;;20.90;55.00;;;;;;5072214;28;20972;-56
2023/05/04 00:58:07;;;;;;;7.30;7.10;;;20.90;55.00;;;;;;5083663;28;20442;-53
2023/05/04 01:00:36;;;;;;;7.60;7.40;;;20.90;54.90;;;;;;5092486;28;20446;-55
2023/05/04 01:03:03;;;;;;;8.30;8.10;;;20.90;54.90;;;;;;5092435;28;20469;-54
2023/05/04 01:05:35;;;;;;;7.83;7.60;;;20.90;54.90;;;;;;5092411;28;20488;-54
2023/05/04 01:08:09;;;;;;;7.87;7.67;;;20.90;54.90;;;;;;5081085;28;20450;-52
2023/05/04 01:10:44;;;;;;;7.40;7.20;;;20.90;54.90;;;;;;5072163;28;20475;-52
2023/05/04 01:13:13;;;;;;;7.70;7.50;;;20.90;54.90;;;;;;5072101;28;20550;-55
2023/05/04 01:15:42;;;;;;;7.20;7.10;;;20.90;54.90;;;;;;5071688;28;20531;-53
2023/05/04 01:18:09;;;;;;;8.60;8.40;;;20.80;54.90;;;;;;5072952;28;20482;-56
2023/05/04 01:20:36;;;;;;;7.73;7.53;;;20.80;54.80;;;;;;5071902;28;20858;-53
2023/05/04 01:23:04;;;;;;;7.70;7.50;;;20.80;54.80;;;;;;5071802;28;20491;-55
2023/05/04 01:25:34;;;;;;;7.70;7.50;;;20.80;54.90;;;;;;5074836;28;20517;-52
2023/05/04 01:28:07;;;;;;;8.10;7.90;;;20.80;54.90;;;;;;5091958;28;20534;-54
2023/05/04 01:30:38;;;;;;;7.70;7.50;;;20.80;54.90;;;;;;5092065;28;20445;-58
2023/05/04 01:33:05;;;;;;;7.53;7.43;;;20.80;54.90;;;;;;5092036;28;20561;-57
2023/05/04 01:35:33;;;;;;;7.37;7.10;;;20.80;54.90;;;;;;5088610;28;21011;-54
2023/05/04 01:38:00;;;;;;;7.40;7.10;;;20.80;54.90;;;;;;5071525;28;20531;-53
2023/05/04 01:40:28;;;;;;;8.37;8.10;;;20.80;54.90;;;;;;5071635;28;20485;-53
2023/05/04 01:42:55;;;;;;;8.17;7.90;;;20.80;54.90;;;;;;5071590;28;20546;-56
2023/05/04 01:45:22;;;;;;;7.93;7.63;;;20.80;54.90;;;;;;5071370;28;20927;-52
2023/05/04 01:47:49;;;;;;;7.80;7.60;;;20.80;54.90;;;;;;5071451;28;20917;-54
2023/05/04 01:50:16;;;;;;;7.60;7.40;;;20.80;54.90;;;;;;5071601;28;20538;-57
2023/05/04 01:52:43;;;;;;;8.03;7.83;;;20.80;54.90;;;;;;5080130;28;20533;-58
2023/05/04 01:55:10;;;;;;;7.90;7.70;;;20.80;54.90;;;;;;5091816;28;20473;-56
2023/05/04 01:57:38;;;;;;;7.50;7.30;;;20.80;54.90;;;;;;5091500;28;20881;-54
2023/05/04 02:00:06;;;;;;;8.17;7.77;;;20.80;54.90;;;;;;5091651;28;20480;-53
2023/05/04 02:02:33;;;;;;;7.93;7.70;;;20.80;54.80;;;;;;5084147;28;21019;-54
2023/05/04 02:04:59;;;;;;;8.13;7.73;;;20.80;54.90;;;;;;5071244;28;20912;-57
2023/05/04 02:07:26;;;;;;;8.50;8.20;;;20.70;54.80;;;;;;5071298;28;20956;-54
2023/05/04 02:09:53;;;;;;;8.53;8.13;;;20.80;54.90;;;;;;5071381;28;20968;-55
2023/05/04 02:12:20;;;;;;;8.10;7.90;;;20.70;54.70;;;;;;5071094;28;20987;-55
2023/05/04 02:14:48;;;;;;;7.73;7.53;;;20.70;54.70;;;;;;5071304;28;20535;-57
2023/05/04 02:17:15;;;;;;;7.97;7.67;;;20.70;54.80;;;;;;5071323;28;20530;-51
2023/05/04 02:19:42;;;;;;;7.40;7.17;;;20.70;54.80;;;;;;5071877;28;20471;-53
2023/05/04 02:22:09;;;;;;;7.60;7.40;;;20.70;54.80;;;;;;5075137;28;20526;-53
2023/05/04 02:24:36;;;;;;;7.50;7.30;;;20.70;54.80;;;;;;5075164;28;20525;-54
2023/05/04 02:27:03;;;;;;;7.60;7.40;;;20.70;54.80;;;;;;5075135;28;20478;-55
2023/05/04 02:29:29;;;;;;;7.73;7.43;;;20.70;54.70;;;;;;5074994;28;20522;-55
2023/05/04 02:31:58;;;;;;;7.73;7.50;;;20.70;54.90;;;;;;5076205;28;20478;-54
2023/05/04 02:34:25;;;;;;;7.90;7.60;;;20.70;54.80;;;;;;5077854;28;20553;-54
2023/05/04 02:36:51;;;;;;;7.60;7.30;;;20.70;54.80;;;;;;5074995;28;20522;-55
2023/05/04 02:39:18;;;;;;;7.50;7.30;;;20.70;54.80;;;;;;5074813;28;20475;-53
2023/05/04 02:41:45;;;;;;;7.93;7.63;;;20.70;54.70;;;;;;5075075;28;20534;-53
2023/05/04 02:44:12;;;;;;;7.30;7.10;;;20.70;54.80;;;;;;5075846;28;20521;-57
2023/05/04 02:46:39;;;;;;;7.67;7.40;;;20.70;54.80;;;;;;5074693;28;20573;-53
2023/05/04 02:49:07;;;;;;;7.30;7.10;;;20.70;54.80;;;;;;5074668;28;20534;-56
2023/05/04 02:51:34;;;;;;;7.80;7.57;;;20.70;54.80;;;;;;5090982;28;20939;-53
2023/05/04 02:54:01;;;;;;;7.17;6.97;;;20.60;54.70;;;;;;5094926;28;21047;-56
2023/05/04 02:56:28;;;;;;;8.73;8.40;;;20.70;54.80;;;;;;5094946;28;20470;-55
2023/05/04 02:58:55;;;;;;;7.87;7.60;;;20.70;54.70;;;;;;5094810;28;20521;-53
2023/05/04 03:01:22;;;;;;;7.90;7.60;;;20.70;54.80;;;;;;5093149;28;20529;-56
2023/05/04 03:03:49;;;;;;;7.60;7.40;;;20.60;54.70;;;;;;5094705;28;20498;-54
2023/05/04 03:06:17;;;;;;;7.00;6.90;;;20.60;54.70;;;;;;5094686;28;20569;-53
2023/05/04 03:08:44;;;;;;;7.40;7.20;;;20.60;54.70;;;;;;5094501;28;20478;-57
2023/05/04 03:11:10;;;;;;;7.70;7.50;;;20.60;54.80;;;;;;5089794;28;20478;-56
2023/05/04 03:13:37;;;;;;;7.80;7.60;;;20.60;54.80;;;;;;5094409;28;20557;-56
2023/05/04 03:16:05;;;;;;;7.60;7.37;;;20.60;54.80;;;;;;5094521;28;20525;-55
2023/05/04 03:18:32;;;;;;;8.03;7.83;;;20.60;54.90;;;;;;5094404;28;20554;-56
2023/05/04 03:20:59;;;;;;;8.10;7.90;;;20.60;54.90;;;;;;5083777;28;20980;-56
2023/05/04 03:23:28;;;;;;;7.53;7.33;;;20.60;55.00;;;;;;5074043;28;20525;-55
2023/05/04 03:25:55;;;;;;;7.63;7.43;;;20.60;55.10;;;;;;5074097;28;20570;-52
2023/05/04 03:28:22;;;;;;;7.67;7.13;;;20.60;55.00;;;;;;5073889;28;20813;-57
2023/05/04 03:30:49;;;;;;;7.30;7.10;;;20.60;55.10;;;;;;5072663;28;20518;-52
2023/05/04 03:33:15;;;;;;;7.53;7.23;;;20.60;55.00;;;;;;5073206;28;20510;-52
2023/05/04 03:35:42;;;;;;;7.70;7.50;;;20.60;55.00;;;;;;5074122;28;20534;-54
2023/05/04 03:38:10;;;;;;;8.00;7.73;;;20.60;55.00;;;;;;5073770;28;20537;-53
2023/05/04 03:40:38;;;;;;;7.77;7.47;;;20.60;55.00;;;;;;5073839;28;20447;-53
2023/05/04 03:43:05;;;;;;;7.40;7.20;;;20.60;54.90;;;;;;5073623;28;20571;-52
2023/05/04 03:45:32;;;;;;;7.70;7.40;;;20.60;55.00;;;;;;5073714;28;20475;-51
2023/05/04 03:47:59;;;;;;;7.60;7.30;;;20.60;55.00;;;;;;5073643;28;20530;-51
2023/05/04 03:50:25;;;;;;;7.93;7.53;;;20.60;55.10;;;;;;5090549;28;20470;-51
2023/05/04 03:52:52;;;;;;;8.07;7.47;;;20.60;55.10;;;;;;5093955;28;20549;-52
2023/05/04 03:55:19;;;;;;;7.83;7.63;;;20.60;55.10;;;;;;5093721;28;20864;-51
2023/05/04 03:57:48;;;;;;;8.07;7.77;;;20.60;55.10;;;;;;5084666;28;20572;-50
2023/05/04 04:00:16;;;;;;;7.53;7.33;;;20.60;55.10;;;;;;5073448;28;20972;-51
2023/05/04 04:02:43;;;;;;;7.83;7.37;;;20.50;55.00;;;;;;5073511;28;20557;-51
2023/05/04 04:05:10;;;;;;;7.00;6.80;;;20.60;55.00;;;;;;5073280;28;20592;-52
2023/05/04 04:07:36;;;;;;;7.73;7.43;;;20.60;55.00;;;;;;5079826;28;20982;-52
2023/05/04 04:10:04;;;;;;;7.20;7.00;;;20.60;55.10;;;;;;5093456;28;20533;-54
2023/05/04 04:12:30;;;;;;;7.37;7.17;;;20.60;55.30;;;;;;5084604;28;20498;-50
2023/05/04 04:14:59;;;;;;;7.30;7.10;;;20.60;55.50;;;;;;5073048;28;20478;-55
2023/05/04 04:17:26;;;;;;;7.63;7.43;;;20.60;55.60;;;;;;5072867;28;20523;-55
2023/05/04 04:19:52;;;;;;;10.37;9.40;;;20.60;55.60;;;;;;5073070;28;20482;-52
2023/05/04 04:22:19;;;;;;;7.53;7.33;;;20.60;55.80;;;;;;5072955;28;20526;-51
2023/05/04 04:24:46;;;;;;;8.00;7.70;;;20.70;55.90;;;;;;5073109;28;20518;-54
2023/05/04 04:27:13;;;;;;;8.63;8.03;;;20.70;56.20;;;;;;5075691;28;20502;-52
2023/05/04 04:29:40;;;;;;;10.80;9.60;;;20.70;57.20;;;;;;5093064;28;20446;-59
2023/05/04 04:32:08;;;;;;;9.13;8.63;;;20.70;58.20;;;;;;5093626;28;20457;-57
2023/05/04 04:34:35;;;;;;;9.30;8.80;;;20.70;58.90;;;;;;5093378;28;20560;-57
2023/05/04 04:37:02;;;;;;;8.63;7.93;;;20.70;58.90;;;;;;5093466;28;20975;-57
2023/05/04 04:39:29;;;;;;;14.83;8.40;;;20.70;58.90;;;;;;5093529;28;20988;-56
2023/05/04 04:41:56;;;;;;;8.73;8.13;;;20.70;58.70;;;;;;5093309;28;20983;-57
2023/05/04 04:44:23;;;;;;;8.33;7.90;;;20.70;58.60;;;;;;5092963;28;20462;-57
2023/05/04 04:46:50;;;;;;;9.87;9.17;;;20.70;58.40;;;;;;5093338;28;20907;-58
2023/05/04 04:49:18;;;;;;;9.70;8.73;;;20.70;58.30;;;;;;5093390;28;20841;-55
2023/05/04 04:51:47;;;;;;;9.70;8.60;;;20.70;58.30;;;;;;5093028;28;20530;-56
2023/05/04 04:54:14;;;;;;;10.27;9.60;;;20.70;58.10;;;;;;5093138;28;20872;-57
2023/05/04 04:56:43;;;;;;;8.53;8.20;;;20.80;58.10;;;;;;5093188;28;20855;-56
2023/05/04 04:59:11;;;;;;;8.93;8.53;;;20.70;57.90;;;;;;5093013;28;20451;-58
2023/05/04 05:01:38;;;;;;;9.50;8.80;;;20.80;57.90;;;;;;5093241;28;20442;-55
2023/05/04 05:04:05;;;;;;;8.53;8.10;;;20.80;57.90;;;;;;5093090;28;20545;-57
2023/05/04 05:06:33;;;;;;;8.93;8.53;;;20.80;57.90;;;;;;5093236;28;20897;-57
2023/05/04 05:09:00;;;;;;;10.07;9.17;;;20.80;57.80;;;;;;5092861;28;21002;-55
2023/05/04 05:11:27;;;;;;;9.20;8.57;;;20.80;57.70;;;;;;5092950;28;20450;-57
2023/05/04 05:13:55;;;;;;;10.47;9.67;;;20.80;57.60;;;;;;5093205;28;21018;-57
2023/05/04 05:16:21;;;;;;;9.67;8.70;;;20.80;57.60;;;;;;5093287;28;20438;-58
2023/05/04 05:18:48;;;;;;;8.47;8.00;;;20.80;57.50;;;;;;5092660;28;20485;-57
2023/05/04 05:21:15;;;;;;;9.17;8.77;;;20.90;57.50;;;;;;5092524;28;20481;-57
2023/05/04 05:23:44;;;;;;;8.90;8.40;;;20.90;57.40;;;;;;5091934;28;20458;-58
2023/05/04 05:26:11;;;;;;;9.00;8.50;;;20.90;57.40;;;;;;5092247;28;20478;-57
2023/05/04 05:28:38;;;;;;;9.60;9.17;;;20.90;57.30;;;;;;5091853;28;20482;-56
2023/05/04 05:31:05;;;;;;;9.27;8.77;;;20.90;57.20;;;;;;5092051;28;20513;-57
2023/05/04 05:33:32;;;;;;;8.90;8.30;;;20.90;57.10;;;;;;5093903;28;20478;-59
2023/05/04 05:35:59;;;;;;;8.53;8.17;;;20.90;57.10;;;;;;5096183;28;20469;-60
2023/05/04 05:38:26;;;;;;;8.80;8.20;;;20.90;57.10;;;;;;5095621;28;20500;-60
2023/05/04 05:40:54;;;;;;;8.70;8.30;;;20.90;57.00;;;;;;5096204;28;20867;-59
2023/05/04 05:43:21;;;;;;;8.30;7.90;;;20.90;56.90;;;;;;5095638;28;20507;-58
2023/05/04 05:45:48;;;;;;;7.87;7.63;;;20.90;56.90;;;;;;5095847;28;20482;-59
2023/05/04 05:48:15;;;;;;;8.23;7.83;;;20.90;56.80;;;;;;5095376;28;20489;-60
2023/05/04 05:50:42;;;;;;;9.17;8.80;;;20.90;56.80;;;;;;5095580;28;20474;-59
2023/05/04 05:53:09;;;;;;;8.20;7.80;;;21.00;56.80;;;;;;5095202;28;20497;-58
2023/05/04 05:55:36;;;;;;;9.27;8.80;;;21.00;56.80;;;;;;5094571;28;20455;-59
2023/05/04 05:58:04;;;;;;;8.50;8.20;;;21.00;56.70;;;;;;5096086;28;20470;-60
2023/05/04 06:00:31;;;;;;;8.30;7.90;;;20.90;56.60;;;;;;5095378;28;20958;-59
2023/05/04 06:02:58;;;;;;;10.07;9.67;;;20.90;56.50;;;;;;5094393;28;20502;-60
2023/05/04 06:05:25;;;;;;;8.00;7.80;;;20.90;56.50;;;;;;5095413;28;20474;-60
2023/05/04 06:07:52;;;;;;;8.40;8.10;;;21.00;56.60;;;;;;5095005;28;20547;-58
2023/05/04 06:10:19;;;;;;;8.80;8.37;;;21.00;56.50;;;;;;5095551;28;20477;-60
2023/05/04 06:12:46;;;;;;;9.07;8.33;;;21.00;56.50;;;;;;5095357;28;20983;-59
2023/05/04 06:15:14;;;;;;;8.30;7.90;;;21.00;56.50;;;;;;5095952;28;20899;-59
2023/05/04 06:17:41;;;;;;;8.57;8.23;;;20.90;56.40;;;;;;5095613;28;20473;-58
2023/05/04 06:20:08;;;;;;;8.60;8.30;;;21.00;56.40;;;;;;5096017;28;20434;-59
2023/05/04 06:22:35;;;;;;;8.67;8.37;;;21.00;56.40;;;;;;5095188;28;20501;-59
2023/05/04 06:25:02;;;;;;;9.50;9.10;;;21.00;56.30;;;;;;5095133;28;20466;-59
2023/05/04 06:27:31;;;;;;;8.97;8.30;;;21.00;56.30;;;;;;5095526;28;20501;-59
2023/05/04 06:29:58;;;;;;;8.70;8.40;;;21.00;56.30;;;;;;5095405;28;20434;-59
2023/05/04 06:32:26;;;;;;;8.40;8.10;;;21.00;56.30;;;;;;5094792;28;20489;-60
2023/05/04 06:34:54;;;;;;;8.93;8.63;;;21.00;56.20;;;;;;5094997;28;20478;-60
2023/05/04 06:37:21;;;;;;;9.17;8.67;;;21.00;56.20;;;;;;5094901;28;20506;-58
2023/05/04 06:39:48;;;;;;;9.37;8.97;;;21.00;56.20;;;;;;5094510;28;20474;-59
2023/05/04 06:42:15;;;;;;;8.60;8.30;;;21.00;56.20;;;;;;5094049;28;20529;-58
2023/05/04 06:44:42;;;;;;;9.27;8.60;;;21.00;56.10;;;;;;5094558;28;20473;-58
2023/05/04 06:47:08;;;;;;;8.10;7.90;;;21.00;56.10;;;;;;5094112;28;20565;-59
2023/05/04 06:49:37;;;;;;;8.70;8.30;;;21.00;56.10;;;;;;5094527;28;20484;-59
2023/05/04 06:52:04;;;;;;;8.40;8.10;;;21.10;56.10;;;;;;5093611;28;20465;-59
2023/05/04 06:54:31;;;;;;;8.40;7.90;;;21.10;56.10;;;;;;5093470;28;20493;-59
2023/05/04 06:56:58;;;;;;;8.50;8.20;;;21.10;56.10;;;;;;5093219;28;20450;-57
2023/05/04 06:59:25;;;;;;;8.83;8.43;;;21.10;56.00;;;;;;5093338;28;20474;-57
2023/05/04 07:01:52;;;;;;;8.50;8.20;;;21.00;55.90;;;;;;5093405;28;20450;-58
2023/05/04 07:04:21;;;;;;;8.60;8.30;;;21.10;56.00;;;;;;5092928;28;20564;-58
2023/05/04 07:06:50;;;;;;;7.90;7.60;;;21.10;56.00;;;;;;5095927;28;20503;-60
2023/05/04 07:09:19;;;;;;;8.60;8.10;;;21.10;56.00;;;;;;5096852;28;20485;-59
2023/05/04 07:11:47;;;;;;;8.27;8.03;;;21.10;56.00;;;;;;5097321;28;20858;-59
2023/05/04 07:14:14;;;;;;;8.90;8.50;;;21.10;55.90;;;;;;5095921;28;20949;-57
2023/05/04 07:16:41;;;;;;;8.67;8.30;;;21.10;55.90;;;;;;5097189;28;21003;-58
2023/05/04 07:19:09;;;;;;;8.27;8.00;;;21.10;55.90;;;;;;5096833;28;20490;-59
2023/05/04 07:21:36;;;;;;;7.97;7.77;;;21.10;55.90;;;;;;5096635;28;21019;-59
2023/05/04 07:24:05;;;;;;;8.33;8.10;;;21.10;55.80;;;;;;5096430;28;21190;-58
2023/05/04 07:26:32;;;;;;;8.30;7.90;;;21.10;55.80;;;;;;5096144;28;20447;-59
2023/05/04 07:28:59;;;;;;;8.40;8.10;;;21.10;55.80;;;;;;5095976;28;20524;-58
2023/05/04 07:31:26;;;;;;;8.90;8.50;;;21.10;55.80;;;;;;5095834;28;20534;-58
2023/05/04 07:33:53;;;;;;;8.00;7.70;;;21.10;55.80;;;;;;5096374;28;20552;-59
2023/05/04 07:36:20;;;;;;;8.30;8.00;;;21.10;55.80;;;;;;5095991;28;20985;-59
2023/05/04 07:38:47;;;;;;;8.37;8.00;;;21.10;55.80;;;;;;5096445;28;20438;-59
2023/05/04 07:41:16;;;;;;;8.17;7.87;;;21.10;55.80;;;;;;5096136;28;20481;-55
2023/05/04 07:43:43;;;;;;;8.70;8.40;;;21.10;55.70;;;;;;5096063;28;20541;-59
2023/05/04 07:46:09;;;;;;;8.90;8.50;;;21.10;55.70;;;;;;5096156;28;20536;-59
2023/05/04 07:48:36;;;;;;;7.60;7.40;;;21.10;56.20;;;;;;5095902;28;20510;-59
2023/05/04 07:51:03;;;;;;;8.00;7.80;;;21.10;55.70;;;;;;5095845;28;20478;-59
2023/05/04 07:53:30;;;;;;;7.90;7.70;;;21.10;55.70;;;;;;5095731;28;20557;-58
2023/05/04 07:55:59;;;;;;;8.10;7.90;;;21.10;55.70;;;;;;5096111;28;20481;-59
2023/05/04 07:58:27;;;;;;;9.13;8.57;;;21.10;55.60;;;;;;5095760;28;20866;-58
2023/05/04 08:00:54;;;;;;;9.70;9.03;;;21.10;55.60;;;;;;5095985;28;20474;-59
2023/05/04 08:03:21;;;;;;;8.00;7.70;;;21.10;55.60;;;;;;5095447;28;20465;-58
2023/05/04 08:05:48;;;;;;;7.70;7.50;;;21.10;55.60;;;;;;5095600;28;20529;-59
2023/05/04 08:08:15;;;;;;;7.63;7.43;;;21.10;55.60;;;;;;5095679;28;20514;-58
2023/05/04 08:10:42;;;;;;;8.60;8.27;;;21.10;55.60;;;;;;5095512;28;20485;-58
2023/05/04 08:13:08;;;;;;;8.27;7.97;;;21.20;55.60;;;;;;5095439;28;20545;-59
2023/05/04 08:15:37;;;;;;;8.47;8.17;;;21.10;55.50;;;;;;5095583;28;20479;-59
2023/05/04 08:18:05;;;;;;;7.67;7.47;;;21.20;55.60;;;;;;5094846;28;20884;-58
2023/05/04 08:20:31;;;;;;;7.63;7.30;;;21.20;55.60;;;;;;5095602;28;20446;-59
2023/05/04 08:22:58;;;;;;;7.33;7.10;;;21.20;55.60;;;;;;5095822;28;20467;-59
2023/05/04 08:25:25;;;;;;;8.03;7.73;;;21.10;55.50;;;;;;5095420;28;20446;-59
2023/05/04 08:27:53;;;;;;;7.73;7.53;;;21.20;55.60;;;;;;5094826;28;20482;-59
2023/05/04 08:30:20;;;;;;;7.23;7.13;;;21.20;55.50;;;;;;5095222;28;20780;-58
2023/05/04 08:32:49;;;;;;;8.07;7.63;;;21.10;55.40;;;;;;5094770;28;20478;-57
2023/05/04 08:35:17;;;;;;;8.20;8.00;;;21.20;55.50;;;;;;5094773;28;20451;-59
2023/05/04 08:37:43;;;;;;;8.70;8.50;;;21.20;55.50;;;;;;5095456;28;20474;-57
2023/05/04 08:40:12;;;;;;;8.93;8.63;;;21.10;55.40;;;;;;5095443;28;20477;-58
2023/05/04 08:42:39;;;;;;;8.90;8.40;;;21.20;55.50;;;;;;5094915;28;20897;-58
2023/05/04 08:45:07;;;;;;;8.50;8.20;;;21.20;55.40;;;;;;5094713;28;20454;-58
2023/05/04 08:47:34;;;;;;;8.17;7.97;;;21.20;55.40;;;;;;5095106;28;20581;-58
2023/05/04 08:50:03;;;;;;;8.30;8.10;;;21.20;55.40;;;;;;5094731;28;20446;-58
2023/05/04 08:52:31;;;;;;;9.00;8.70;;;21.20;55.40;;;;;;5094806;28;20470;-58
2023/05/04 08:54:58;;;;;;;8.50;8.30;;;21.20;55.40;;;;;;5095091;28;20450;-58
2023/05/04 08:57:26;;;;;;;8.30;8.10;;;21.20;55.40;;;;;;5094712;28;20470;-59
2023/05/04 08:59:54;;;;;;;8.10;7.90;;;21.20;55.40;;;;;;5094683;28;20481;-58
2023/05/04 09:02:22;;;;;;;7.90;7.70;;;21.20;55.40;;;;;;5095604;28;20935;-58
2023/05/04 09:04:49;;;;;;;7.60;7.40;;;21.20;55.40;;;;;;5094530;28;20482;-59
2023/05/04 09:07:18;;;;;;;7.93;7.73;;;21.20;55.40;;;;;;5094404;28;20453;-59
2023/05/04 09:09:46;;;;;;;7.90;7.70;;;21.20;55.40;;;;;;5094319;28;20478;-58
2023/05/04 09:12:13;;;;;;;7.50;7.40;;;21.20;55.30;;;;;;5094683;28;20831;-59
2023/05/04 09:14:41;;;;;;;8.53;8.33;;;21.20;55.30;;;;;;5094538;28;20970;-58
2023/05/04 09:17:15;;;;;;;8.20;7.90;;;21.20;55.30;;;;;;5094467;28;20442;-60
2023/05/04 09:19:43;;;;;;;8.50;8.27;;;21.20;55.30;;;;;;5094400;28;20443;-59
2023/05/04 09:22:18;;;;;;;8.20;8.00;;;21.20;55.30;;;;;;5094296;28;20445;-58
2023/05/04 09:24:45;;;;;;;8.00;7.70;;;21.20;55.30;;;;;;5094192;28;20485;-58
2023/05/04 09:27:14;;;;;;;8.30;8.07;;;21.20;55.30;;;;;;5094144;28;20450;-59
2023/05/04 09:29:41;;;;;;;8.10;7.90;;;21.20;55.30;;;;;;5094803;28;20942;-59
2023/05/04 09:32:12;;;;;;;7.80;7.60;;;21.20;55.30;;;;;;5094133;28;20977;-59
2023/05/04 09:34:47;;;;;;;8.47;8.07;;;21.20;55.30;;;;;;5094285;28;20438;-59
2023/05/04 09:37:14;;;;;;;7.60;7.40;;;21.20;55.30;;;;;;5094551;28;20942;-59
2023/05/04 09:39:52;;;;;;;7.80;7.70;;;21.30;55.40;;;;;;5094184;28;20874;-60
2023/05/04 09:42:20;;;;;;;7.50;7.30;;;21.30;55.40;;;;;;5094158;28;20822;-60
2023/05/04 09:44:57;;;;;;;7.70;7.50;;;21.20;55.30;;;;;;5094138;28;20473;-59
2023/05/04 09:47:33;;;;;;;8.03;7.83;;;21.30;55.40;;;;;;5093842;28;20449;-60
2023/05/04 09:50:10;;;;;;;8.03;7.83;;;21.30;55.40;;;;;;5093841;28;20447;-59
2023/05/04 09:52:37;;;;;;;7.80;7.60;;;21.20;55.30;;;;;;5094167;28;20469;-59
2023/05/04 09:55:11;;;;;;;7.50;7.30;;;21.20;55.30;;;;;;5093350;28;20503;-59
2023/05/04 09:57:38;;;;;;;7.87;7.67;;;21.30;55.30;;;;;;5093912;28;20458;-59
2023/05/04 10:00:07;;;;;;;7.70;7.50;;;21.30;55.30;;;;;;5093940;28;20473;-59
2023/05/04 10:02:34;;;;;;;7.50;7.30;;;21.30;55.30;;;;;;5094129;28;20490;-58
2023/05/04 10:05:02;;;;;;;7.50;7.30;;;21.30;55.30;;;;;;5094252;28;20453;-59
2023/05/04 10:07:31;;;;;;;7.30;7.10;;;21.30;55.30;;;;;;5093725;28;20484;-59
2023/05/04 10:09:58;;;;;;;7.87;7.67;;;21.30;55.30;;;;;;5093987;28;20446;-58
2023/05/04 10:12:27;;;;;;;7.53;7.30;;;21.30;55.30;;;;;;5093449;28;20446;-60
2023/05/04 10:14:54;;;;;;;7.60;7.40;;;21.30;55.20;;;;;;5093600;28;20525;-59
2023/05/04 10:17:31;;;;;;;7.17;7.07;;;21.40;55.30;;;;;;5093326;28;20982;-59
2023/05/04 10:20:11;;;;;;;7.43;7.23;;;21.40;55.30;;;;;;5093552;28;20963;-58
2023/05/04 10:22:52;;;;;;;7.90;7.70;;;21.40;55.30;;;;;;5093836;28;20890;-59
2023/05/04 10:25:47;;;;;;;7.63;7.43;;;21.40;55.30;;;;;;5093465;28;20529;-59
2023/05/04 10:28:26;;;;;;;8.10;7.90;;;21.40;55.30;;;;;;5089133;28;20566;-59
2023/05/04 10:30:57;;;;;;;8.13;7.77;;;21.40;55.30;;;;;;5093139;28;20473;-60
2023/05/04 10:33:24;;;;;;;7.80;7.70;;;21.40;55.30;;;;;;5093093;28;20475;-59
2023/05/04 10:35:52;;;;;;;8.73;8.43;;;21.40;55.30;;;;;;5094039;28;20503;-59
2023/05/04 10:38:19;;;;;;;7.40;7.30;;;21.40;55.20;;;;;;5093258;28;20827;-59
2023/05/04 10:40:49;;;;;;;8.03;7.83;;;21.40;55.20;;;;;;5094965;28;20474;-60
2023/05/04 10:43:23;;;;;;;7.80;7.60;;;21.40;55.20;;;;;;5098399;28;20470;-59
2023/05/04 10:45:50;;;;;;;7.60;7.50;;;21.40;55.20;;;;;;5097351;28;20443;-59
2023/05/04 10:48:17;;;;;;;8.03;7.83;;;21.40;55.20;;;;;;5096853;28;20902;-60
2023/05/04 10:50:46;;;;;;;8.20;7.90;;;21.40;55.20;;;;;;5096887;28;20474;-59
2023/05/04 10:53:13;;;;;;;8.50;8.30;;;21.40;55.20;;;;;;5096273;28;20466;-57
2023/05/04 10:55:41;;;;;;;8.73;8.43;;;21.50;55.20;;;;;;5096599;28;20473;-59
2023/05/04 10:58:08;;;;;;;8.50;8.30;;;21.50;55.20;;;;;;5096974;28;20776;-59
2023/05/04 11:00:38;;;;;;;8.20;8.00;;;21.50;55.20;;;;;;5097141;28;20808;-60
2023/05/04 11:03:06;;;;;;;8.00;7.80;;;21.40;55.10;;;;;;5096447;28;20545;-59
2023/05/04 11:05:43;;;;;;;7.73;7.63;;;21.40;55.10;;;;;;5096413;28;20446;-59
2023/05/04 11:08:20;;;;;;;7.70;7.50;;;21.50;55.20;;;;;;5096344;28;20469;-60
2023/05/04 11:10:47;;;;;;;7.93;7.63;;;21.50;55.20;;;;;;5096536;28;20442;-60
2023/05/04 11:13:15;;;;;;;7.67;7.47;;;21.50;55.20;;;;;;5096574;28;20544;-60
2023/05/04 11:15:48;;;;;;;7.97;7.77;;;21.50;55.20;;;;;;5098341;28;20970;-60
2023/05/04 11:18:15;;;;;;;7.90;7.70;;;21.50;55.20;;;;;;5098096;28;20468;-61
2023/05/04 11:20:42;;;;;;;8.30;8.00;;;21.50;55.10;;;;;;5098005;28;20791;-61
2023/05/04 11:23:09;;;;;;;8.00;7.80;;;21.50;55.20;;;;;;5098679;28;20469;-60
2023/05/04 11:25:37;;;;;;;7.73;7.57;;;21.50;55.10;;;;;;5100054;28;20450;-60
2023/05/04 11:28:04;;;;;;;8.13;7.93;;;21.50;55.10;;;;;;5098644;28;20439;-61
2023/05/04 11:30:33;;;;;;;7.73;7.53;;;21.50;55.10;;;;;;5097174;28;20477;-60
2023/05/04 11:33:03;;;;;;;8.77;8.47;;;21.50;55.10;;;;;;5096809;28;20470;-56
2023/05/04 11:35:31;;;;;;;8.03;7.83;;;21.50;55.10;;;;;;5094201;28;20443;-58
2023/05/04 11:37:58;;;;;;;8.40;8.20;;;21.50;55.10;;;;;;5094064;28;20451;-58
2023/05/04 11:40:26;;;;;;;7.83;7.73;;;21.60;55.20;;;;;;5094296;28;20665;-59
2023/05/04 11:42:54;;;;;;;8.30;8.10;;;21.60;55.20;;;;;;5094032;28;20558;-58
2023/05/04 11:45:23;;;;;;;8.37;8.17;;;21.60;55.20;;;;;;5093963;28;20533;-58
2023/05/04 11:47:51;;;;;;;7.90;7.70;;;21.50;55.00;;;;;;5093882;28;20872;-59
2023/05/04 11:50:21;;;;;;;8.67;8.47;;;21.60;55.10;;;;;;5093927;28;20847;-58
2023/05/04 11:52:48;;;;;;;8.00;7.73;;;21.60;55.20;;;;;;5092746;28;20553;-59
2023/05/04 11:55:26;;;;;;;8.10;7.90;;;21.60;55.10;;;;;;5093937;28;20480;-57
2023/05/04 11:57:57;;;;;;;7.80;7.70;;;21.60;55.10;;;;;;5093688;28;20442;-58
2023/05/04 12:00:36;;;;;;;7.80;7.60;;;21.60;55.20;;;;;;5093747;28;20443;-57
2023/05/04 12:03:04;;;;;;;7.87;7.67;;;21.60;55.10;;;;;;5093642;28;20470;-59
2023/05/04 12:05:33;;;;;;;7.77;7.57;;;21.60;55.10;;;;;;5093603;28;20459;-58
2023/05/04 12:08:00;;;;;;;8.00;7.80;;;21.60;55.20;;;;;;5093450;28;20442;-58
2023/05/04 12:10:28;;;;;;;8.57;8.37;;;21.70;55.20;;;;;;5093628;28;20482;-59
2023/05/04 12:12:55;;;;;;;8.10;7.90;;;21.70;55.20;;;;;;5093458;28;20523;-57
2023/05/04 12:15:32;;;;;;;8.07;7.87;;;21.70;55.20;;;;;;5093325;28;20474;-60
2023/05/04 12:18:00;;;;;;;7.20;7.10;;;21.70;55.20;;;;;;5093382;28;20477;-59
2023/05/04 12:20:28;;;;;;;8.57;8.37;;;21.70;55.20;;;;;;5093506;28;20943;-54
2023/05/04 12:22:57;;;;;;;8.30;8.10;;;21.70;55.20;;;;;;5093351;28;20553;-59
2023/05/04 12:25:24;;;;;;;7.97;7.77;;;21.70;55.20;;;;;;5093441;28;20529;-59
2023/05/04 12:27:51;;;;;;;8.00;7.80;;;21.80;55.20;;;;;;5093228;28;20987;-58
2023/05/04 12:30:18;;;;;;;8.13;7.93;;;21.80;55.20;;;;;;5093133;28;20565;-59
2023/05/04 12:32:45;;;;;;;8.03;7.80;;;21.80;55.20;;;;;;5093049;28;20506;-56
2023/05/04 12:35:12;;;;;;;8.00;7.80;;;21.80;55.20;;;;;;5093057;28;20529;-60
2023/05/04 12:37:39;;;;;;;8.00;7.80;;;21.80;55.20;;;;;;5093217;28;20882;-58
2023/05/04 12:40:09;;;;;;;8.43;8.17;;;21.80;55.20;;;;;;5093109;28;20522;-59
2023/05/04 12:42:36;;;;;;;8.10;7.90;;;21.80;55.20;;;;;;5092982;28;20545;-59
2023/05/04 12:45:03;;;;;;;8.20;8.00;;;21.80;55.20;;;;;;5092946;28;20473;-58
2023/05/04 12:47:30;;;;;;;8.30;8.10;;;21.80;55.20;;;;;;5093022;28;20446;-59
2023/05/04 12:49:57;;;;;;;8.90;8.67;;;21.80;55.20;;;;;;5092825;28;20570;-58